sensor_id;sensor_type;location;lat;lon;timestamp;temperature;humidity
35593;DHT22;64447;52.140;5.602;2023-04-06T00:01:19;6.00;76.00
35593;DHT22;64447;52.140;5.602;2023-04-06T00:03:44;5.90;75.80
35593;DHT22;64447;52.140;5.602;2023-04-06T00:06:10;5.90;75.90
35593;DHT22;64447;52.140;5.602;2023-04-06T00:08:36;5.90;76.10
35593;DHT22;64447;52.140;5.602;2023-04-06T00:11:01;5.90;76.50
35593;DHT22;64447;52.140;5.602;2023-04-06T00:13:27;5.80;76.60
35593;DHT22;64447;52.140;5.602;2023-04-06T00:15:53;5.70;76.50
35593;DHT22;64447;52.140;5.602;2023-04-06T00:18:18;5.80;76.40
35593;DHT22;64447;52.140;5.602;2023-04-06T00:24:06;5.70;77.10
35593;DHT22;64447;52.140;5.602;2023-04-06T00:26:32;5.70;77.10
35593;DHT22;64447;52.140;5.602;2023-04-06T00:28:57;5.60;76.50
35593;DHT22;64447;52.140;5.602;2023-04-06T00:31:24;5.60;76.60
35593;DHT22;64447;52.140;5.602;2023-04-06T00:33:49;5.50;77.10
35593;DHT22;64447;52.140;5.602;2023-04-06T00:36:15;5.50;77.30
35593;DHT22;64447;52.140;5.602;2023-04-06T00:38:41;5.40;77.60
35593;DHT22;64447;52.140;5.602;2023-04-06T00:41:06;5.40;77.60
35593;DHT22;64447;52.140;5.602;2023-04-06T00:43:32;5.30;77.50
35593;DHT22;64447;52.140;5.602;2023-04-06T00:45:58;5.40;77.30
35593;DHT22;64447;52.140;5.602;2023-04-06T00:48:23;5.30;76.80
35593;DHT22;64447;52.140;5.602;2023-04-06T00:54:11;5.30;77.80
35593;DHT22;64447;52.140;5.602;2023-04-06T00:56:36;5.20;77.50
35593;DHT22;64447;52.140;5.602;2023-04-06T00:59:02;5.20;77.80
35593;DHT22;64447;52.140;5.602;2023-04-06T01:01:28;5.20;77.90
35593;DHT22;64447;52.140;5.602;2023-04-06T01:03:54;5.20;77.90
35593;DHT22;64447;52.140;5.602;2023-04-06T01:08:46;5.10;77.30
35593;DHT22;64447;52.140;5.602;2023-04-06T01:11:12;5.10;77.90
35593;DHT22;64447;52.140;5.602;2023-04-06T01:13:38;5.00;78.30
35593;DHT22;64447;52.140;5.602;2023-04-06T01:16:03;5.00;78.40
35593;DHT22;64447;52.140;5.602;2023-04-06T01:18:29;4.90;78.20
35593;DHT22;64447;52.140;5.602;2023-04-06T01:24:17;4.90;78.10
35593;DHT22;64447;52.140;5.602;2023-04-06T01:26:43;4.80;78.70
35593;DHT22;64447;52.140;5.602;2023-04-06T01:29:08;4.80;79.50
35593;DHT22;64447;52.140;5.602;2023-04-06T01:31:34;4.80;79.40
35593;DHT22;64447;52.140;5.602;2023-04-06T01:33:59;4.90;79.40
35593;DHT22;64447;52.140;5.602;2023-04-06T01:36:25;4.80;79.30
35593;DHT22;64447;52.140;5.602;2023-04-06T01:38:51;4.80;79.60
35593;DHT22;64447;52.140;5.602;2023-04-06T01:41:17;4.90;79.40
35593;DHT22;64447;52.140;5.602;2023-04-06T01:43:43;4.70;79.70
35593;DHT22;64447;52.140;5.602;2023-04-06T01:54:23;4.50;82.10
35593;DHT22;64447;52.140;5.602;2023-04-06T01:56:49;4.50;82.00
35593;DHT22;64447;52.140;5.602;2023-04-06T01:59:16;4.50;81.60
35593;DHT22;64447;52.140;5.602;2023-04-06T02:01:42;4.50;81.30
35593;DHT22;64447;52.140;5.602;2023-04-06T02:04:08;4.60;82.00
35593;DHT22;64447;52.140;5.602;2023-04-06T02:06:33;4.50;82.00
35593;DHT22;64447;52.140;5.602;2023-04-06T02:08:59;4.50;82.30
35593;DHT22;64447;52.140;5.602;2023-04-06T02:11:24;4.50;82.60
35593;DHT22;64447;52.140;5.602;2023-04-06T02:13:50;4.50;82.10
35593;DHT22;64447;52.140;5.602;2023-04-06T02:16:16;4.60;82.00
35593;DHT22;64447;52.140;5.602;2023-04-06T02:18:41;4.50;82.20
35593;DHT22;64447;52.140;5.602;2023-04-06T02:24:29;4.50;83.30
35593;DHT22;64447;52.140;5.602;2023-04-06T02:26:54;4.50;83.70
35593;DHT22;64447;52.140;5.602;2023-04-06T02:29:20;4.50;83.70
35593;DHT22;64447;52.140;5.602;2023-04-06T02:31:46;4.50;83.80
35593;DHT22;64447;52.140;5.602;2023-04-06T02:34:12;4.50;84.10
35593;DHT22;64447;52.140;5.602;2023-04-06T02:36:45;4.50;84.00
35593;DHT22;64447;52.140;5.602;2023-04-06T02:39:11;4.60;84.10
35593;DHT22;64447;52.140;5.602;2023-04-06T02:41:37;4.60;84.30
35593;DHT22;64447;52.140;5.602;2023-04-06T02:44:03;4.70;84.80
35593;DHT22;64447;52.140;5.602;2023-04-06T02:46:29;4.60;85.00
35593;DHT22;64447;52.140;5.602;2023-04-06T02:48:55;4.70;85.10
35593;DHT22;64447;52.140;5.602;2023-04-06T02:54:43;4.80;86.10
35593;DHT22;64447;52.140;5.602;2023-04-06T02:57:09;4.80;85.60
35593;DHT22;64447;52.140;5.602;2023-04-06T02:59:35;4.80;85.40
35593;DHT22;64447;52.140;5.602;2023-04-06T03:02:00;4.80;85.50
35593;DHT22;64447;52.140;5.602;2023-04-06T03:04:26;4.80;85.50
35593;DHT22;64447;52.140;5.602;2023-04-06T03:06:53;4.80;85.60
35593;DHT22;64447;52.140;5.602;2023-04-06T03:09:19;4.70;85.40
35593;DHT22;64447;52.140;5.602;2023-04-06T03:11:45;4.70;86.00
35593;DHT22;64447;52.140;5.602;2023-04-06T03:14:10;4.70;85.90
35593;DHT22;64447;52.140;5.602;2023-04-06T03:16:36;4.70;86.00
35593;DHT22;64447;52.140;5.602;2023-04-06T03:19:01;4.70;86.20
35593;DHT22;64447;52.140;5.602;2023-04-06T03:24:49;4.70;87.10
35593;DHT22;64447;52.140;5.602;2023-04-06T03:27:15;4.70;86.80
35593;DHT22;64447;52.140;5.602;2023-04-06T03:29:40;4.80;86.50
35593;DHT22;64447;52.140;5.602;2023-04-06T03:32:06;4.80;86.20
35593;DHT22;64447;52.140;5.602;2023-04-06T03:34:31;4.90;86.00
35593;DHT22;64447;52.140;5.602;2023-04-06T03:36:57;5.20;85.60
35593;DHT22;64447;52.140;5.602;2023-04-06T03:39:23;4.90;84.80
35593;DHT22;64447;52.140;5.602;2023-04-06T03:41:48;4.70;84.30
35593;DHT22;64447;52.140;5.602;2023-04-06T03:44:14;4.70;85.00
35593;DHT22;64447;52.140;5.602;2023-04-06T03:46:40;4.70;85.10
35593;DHT22;64447;52.140;5.602;2023-04-06T03:49:05;4.70;85.00
35593;DHT22;64447;52.140;5.602;2023-04-06T03:54:53;4.80;85.20
35593;DHT22;64447;52.140;5.602;2023-04-06T03:57:18;4.90;84.80
35593;DHT22;64447;52.140;5.602;2023-04-06T03:59:44;4.80;84.90
35593;DHT22;64447;52.140;5.602;2023-04-06T04:02:10;4.80;85.00
35593;DHT22;64447;52.140;5.602;2023-04-06T04:04:35;4.90;84.90
35593;DHT22;64447;52.140;5.602;2023-04-06T04:07:01;5.00;84.70
35593;DHT22;64447;52.140;5.602;2023-04-06T04:09:27;5.00;85.00
35593;DHT22;64447;52.140;5.602;2023-04-06T04:11:52;5.00;85.20
35593;DHT22;64447;52.140;5.602;2023-04-06T04:14:18;5.10;85.20
35593;DHT22;64447;52.140;5.602;2023-04-06T04:16:43;5.10;84.90
35593;DHT22;64447;52.140;5.602;2023-04-06T04:19:09;5.10;85.00
35593;DHT22;64447;52.140;5.602;2023-04-06T04:24:56;5.20;84.90
35593;DHT22;64447;52.140;5.602;2023-04-06T04:27:22;5.20;85.50
35593;DHT22;64447;52.140;5.602;2023-04-06T04:29:47;5.20;85.40
35593;DHT22;64447;52.140;5.602;2023-04-06T04:32:13;5.20;86.00
35593;DHT22;64447;52.140;5.602;2023-04-06T04:34:38;5.20;86.40
35593;DHT22;64447;52.140;5.602;2023-04-06T04:37:07;5.20;86.60
35593;DHT22;64447;52.140;5.602;2023-04-06T04:39:32;5.20;86.40
35593;DHT22;64447;52.140;5.602;2023-04-06T04:41:58;5.20;86.30
35593;DHT22;64447;52.140;5.602;2023-04-06T04:44:24;5.20;86.80
35593;DHT22;64447;52.140;5.602;2023-04-06T04:46:49;5.30;86.30
35593;DHT22;64447;52.140;5.602;2023-04-06T04:49:15;5.30;86.00
35593;DHT22;64447;52.140;5.602;2023-04-06T04:55:03;5.30;86.00
35593;DHT22;64447;52.140;5.602;2023-04-06T04:57:29;5.10;86.30
35593;DHT22;64447;52.140;5.602;2023-04-06T04:59:54;5.20;86.20
35593;DHT22;64447;52.140;5.602;2023-04-06T05:02:20;5.20;85.80
35593;DHT22;64447;52.140;5.602;2023-04-06T05:04:46;5.00;85.70
35593;DHT22;64447;52.140;5.602;2023-04-06T05:07:11;4.90;86.10
35593;DHT22;64447;52.140;5.602;2023-04-06T05:09:37;4.80;86.30
35593;DHT22;64447;52.140;5.602;2023-04-06T05:12:02;4.70;86.90
35593;DHT22;64447;52.140;5.602;2023-04-06T05:14:28;4.80;86.80
35593;DHT22;64447;52.140;5.602;2023-04-06T05:16:54;4.90;86.40
35593;DHT22;64447;52.140;5.602;2023-04-06T05:19:20;5.00;86.20
35593;DHT22;64447;52.140;5.602;2023-04-06T05:25:08;5.10;86.30
35593;DHT22;64447;52.140;5.602;2023-04-06T05:27:34;5.20;86.20
35593;DHT22;64447;52.140;5.602;2023-04-06T05:30:00;5.30;86.10
35593;DHT22;64447;52.140;5.602;2023-04-06T05:32:26;5.30;86.20
35593;DHT22;64447;52.140;5.602;2023-04-06T05:34:52;5.30;86.00
35593;DHT22;64447;52.140;5.602;2023-04-06T05:37:18;5.40;85.70
35593;DHT22;64447;52.140;5.602;2023-04-06T05:39:43;5.50;85.30
35593;DHT22;64447;52.140;5.602;2023-04-06T05:42:09;5.50;84.90
35593;DHT22;64447;52.140;5.602;2023-04-06T05:44:37;5.50;83.70
35593;DHT22;64447;52.140;5.602;2023-04-06T05:47:02;5.50;84.60
35593;DHT22;64447;52.140;5.602;2023-04-06T05:49:28;5.60;83.60
35593;DHT22;64447;52.140;5.602;2023-04-06T05:55:16;5.70;83.40
35593;DHT22;64447;52.140;5.602;2023-04-06T05:57:41;5.80;83.80
35593;DHT22;64447;52.140;5.602;2023-04-06T06:00:07;5.90;83.90
35593;DHT22;64447;52.140;5.602;2023-04-06T06:02:34;5.90;83.80
35593;DHT22;64447;52.140;5.602;2023-04-06T06:05:00;6.00;83.80
35593;DHT22;64447;52.140;5.602;2023-04-06T06:07:25;6.10;83.70
35593;DHT22;64447;52.140;5.602;2023-04-06T06:09:51;6.20;83.60
35593;DHT22;64447;52.140;5.602;2023-04-06T06:12:17;6.20;82.70
35593;DHT22;64447;52.140;5.602;2023-04-06T06:14:42;6.30;83.00
35593;DHT22;64447;52.140;5.602;2023-04-06T06:17:08;6.30;82.60
35593;DHT22;64447;52.140;5.602;2023-04-06T06:19:34;6.40;82.60
35593;DHT22;64447;52.140;5.602;2023-04-06T06:25:21;6.50;83.10
35593;DHT22;64447;52.140;5.602;2023-04-06T06:27:47;6.50;83.10
35593;DHT22;64447;52.140;5.602;2023-04-06T06:30:13;6.60;83.90
35593;DHT22;64447;52.140;5.602;2023-04-06T06:32:38;6.60;84.10
35593;DHT22;64447;52.140;5.602;2023-04-06T06:35:04;6.80;84.20
35593;DHT22;64447;52.140;5.602;2023-04-06T06:37:30;6.90;84.00
35593;DHT22;64447;52.140;5.602;2023-04-06T06:39:56;7.00;83.80
35593;DHT22;64447;52.140;5.602;2023-04-06T06:42:22;7.10;84.00
35593;DHT22;64447;52.140;5.602;2023-04-06T06:44:47;7.10;83.20
35593;DHT22;64447;52.140;5.602;2023-04-06T06:47:13;6.80;83.40
35593;DHT22;64447;52.140;5.602;2023-04-06T06:49:38;6.80;83.00
35593;DHT22;64447;52.140;5.602;2023-04-06T06:55:26;6.80;82.10
35593;DHT22;64447;52.140;5.602;2023-04-06T06:57:52;6.90;81.60
35593;DHT22;64447;52.140;5.602;2023-04-06T07:00:18;6.90;81.00
35593;DHT22;64447;52.140;5.602;2023-04-06T07:02:47;6.80;81.50
35593;DHT22;64447;52.140;5.602;2023-04-06T07:05:13;6.80;81.20
35593;DHT22;64447;52.140;5.602;2023-04-06T07:07:38;6.90;81.50
35593;DHT22;64447;52.140;5.602;2023-04-06T07:10:05;6.90;81.40
35593;DHT22;64447;52.140;5.602;2023-04-06T07:12:30;7.00;81.50
35593;DHT22;64447;52.140;5.602;2023-04-06T07:14:56;7.00;80.90
35593;DHT22;64447;52.140;5.602;2023-04-06T07:17:22;7.20;80.90
35593;DHT22;64447;52.140;5.602;2023-04-06T07:19:47;7.30;81.20
35593;DHT22;64447;52.140;5.602;2023-04-06T07:25:35;7.60;80.10
35593;DHT22;64447;52.140;5.602;2023-04-06T07:28:04;7.40;99.90
35593;DHT22;64447;52.140;5.602;2023-04-06T07:30:30;7.80;90.60
35593;DHT22;64447;52.140;5.602;2023-04-06T07:32:56;7.80;94.00
35593;DHT22;64447;52.140;5.602;2023-04-06T07:35:26;7.70;94.30
35593;DHT22;64447;52.140;5.602;2023-04-06T07:37:53;7.80;97.60
35593;DHT22;64447;52.140;5.602;2023-04-06T07:40:18;7.70;95.40
35593;DHT22;64447;52.140;5.602;2023-04-06T07:42:45;7.60;94.00
35593;DHT22;64447;52.140;5.602;2023-04-06T07:45:11;7.60;93.60
35593;DHT22;64447;52.140;5.602;2023-04-06T07:47:36;7.70;93.00
35593;DHT22;64447;52.140;5.602;2023-04-06T07:50:02;8.10;93.40
35593;DHT22;64447;52.140;5.602;2023-04-06T07:55:50;7.90;94.80
35593;DHT22;64447;52.140;5.602;2023-04-06T07:58:15;8.00;94.90
35593;DHT22;64447;52.140;5.602;2023-04-06T08:00:41;7.90;94.70
35593;DHT22;64447;52.140;5.602;2023-04-06T08:03:06;7.90;94.40
35593;DHT22;64447;52.140;5.602;2023-04-06T08:05:32;7.80;95.90
35593;DHT22;64447;52.140;5.602;2023-04-06T08:07:58;7.80;96.20
35593;DHT22;64447;52.140;5.602;2023-04-06T08:10:23;8.20;85.30
35593;DHT22;64447;52.140;5.602;2023-04-06T08:12:49;7.90;96.60
35593;DHT22;64447;52.140;5.602;2023-04-06T08:15:14;7.90;96.10
35593;DHT22;64447;52.140;5.602;2023-04-06T08:17:40;8.00;85.60
35593;DHT22;64447;52.140;5.602;2023-04-06T08:20:06;8.00;95.30
35593;DHT22;64447;52.140;5.602;2023-04-06T08:25:54;8.00;93.20
35593;DHT22;64447;52.140;5.602;2023-04-06T08:28:20;7.90;94.90
35593;DHT22;64447;52.140;5.602;2023-04-06T08:30:46;8.20;77.90
35593;DHT22;64447;52.140;5.602;2023-04-06T08:33:12;8.20;78.20
35593;DHT22;64447;52.140;5.602;2023-04-06T08:35:38;8.20;77.50
35593;DHT22;64447;52.140;5.602;2023-04-06T08:38:03;8.30;77.90
35593;DHT22;64447;52.140;5.602;2023-04-06T08:40:29;8.40;77.80
35593;DHT22;64447;52.140;5.602;2023-04-06T08:42:55;8.60;77.20
35593;DHT22;64447;52.140;5.602;2023-04-06T08:45:22;8.60;76.80
35593;DHT22;64447;52.140;5.602;2023-04-06T08:47:50;8.80;76.90
35593;DHT22;64447;52.140;5.602;2023-04-06T08:50:17;8.90;77.00
35593;DHT22;64447;52.140;5.602;2023-04-06T08:56:07;8.90;77.10
35593;DHT22;64447;52.140;5.602;2023-04-06T08:58:35;8.90;77.00
35593;DHT22;64447;52.140;5.602;2023-04-06T09:01:06;8.90;76.90
35593;DHT22;64447;52.140;5.602;2023-04-06T09:03:36;8.70;77.20
35593;DHT22;64447;52.140;5.602;2023-04-06T09:06:03;8.80;77.30
35593;DHT22;64447;52.140;5.602;2023-04-06T09:08:29;8.70;77.30
35593;DHT22;64447;52.140;5.602;2023-04-06T09:10:55;8.70;77.60
35593;DHT22;64447;52.140;5.602;2023-04-06T09:13:21;8.80;78.20
35593;DHT22;64447;52.140;5.602;2023-04-06T09:15:57;8.90;78.30
35593;DHT22;64447;52.140;5.602;2023-04-06T09:18:33;8.90;78.00
35593;DHT22;64447;52.140;5.602;2023-04-06T09:21:05;8.90;77.90
35593;DHT22;64447;52.140;5.602;2023-04-06T09:23:32;9.00;78.80
35593;DHT22;64447;52.140;5.602;2023-04-06T09:31:15;9.10;78.80
35593;DHT22;64447;52.140;5.602;2023-04-06T09:33:43;9.10;79.00
35593;DHT22;64447;52.140;5.602;2023-04-06T09:36:09;9.10;79.50
35593;DHT22;64447;52.140;5.602;2023-04-06T09:38:50;9.20;80.00
35593;DHT22;64447;52.140;5.602;2023-04-06T09:41:28;9.40;79.90
35593;DHT22;64447;52.140;5.602;2023-04-06T09:46:51;9.60;80.10
35593;DHT22;64447;52.140;5.602;2023-04-06T09:49:18;9.60;79.80
35593;DHT22;64447;52.140;5.602;2023-04-06T09:51:53;9.60;79.80
35593;DHT22;64447;52.140;5.602;2023-04-06T09:54:21;9.60;79.30
35593;DHT22;64447;52.140;5.602;2023-04-06T10:00:07;9.80;79.10
35593;DHT22;64447;52.140;5.602;2023-04-06T10:07:33;9.70;79.50
35593;DHT22;64447;52.140;5.602;2023-04-06T10:09:59;9.70;80.10
35593;DHT22;64447;52.140;5.602;2023-04-06T10:12:25;9.70;80.50
35593;DHT22;64447;52.140;5.602;2023-04-06T10:14:51;9.70;81.10
35593;DHT22;64447;52.140;5.602;2023-04-06T10:17:17;9.70;81.60
35593;DHT22;64447;52.140;5.602;2023-04-06T10:19:55;9.70;81.80
35593;DHT22;64447;52.140;5.602;2023-04-06T10:24:55;10.00;80.70
35593;DHT22;64447;52.140;5.602;2023-04-06T10:27:31;10.10;81.50
35593;DHT22;64447;52.140;5.602;2023-04-06T10:30:02;10.30;81.30
35593;DHT22;64447;52.140;5.602;2023-04-06T10:32:38;10.40;81.10
35593;DHT22;64447;52.140;5.602;2023-04-06T10:40:24;10.60;80.20
35593;DHT22;64447;52.140;5.602;2023-04-06T10:42:54;10.70;80.50
35593;DHT22;64447;52.140;5.602;2023-04-06T10:45:21;10.70;80.50
35593;DHT22;64447;52.140;5.602;2023-04-06T10:47:47;10.80;81.00
35593;DHT22;64447;52.140;5.602;2023-04-06T10:50:16;10.80;82.00
35593;DHT22;64447;52.140;5.602;2023-04-06T10:52:44;10.80;83.50
35593;DHT22;64447;52.140;5.602;2023-04-06T10:55:10;10.80;84.80
35593;DHT22;64447;52.140;5.602;2023-04-06T10:57:37;10.80;84.60
35593;DHT22;64447;52.140;5.602;2023-04-06T11:00:05;10.90;85.10
35593;DHT22;64447;52.140;5.602;2023-04-06T11:02:31;10.90;84.70
35593;DHT22;64447;52.140;5.602;2023-04-06T11:04:58;10.70;87.10
35593;DHT22;64447;52.140;5.602;2023-04-06T11:07:27;10.70;89.20
35593;DHT22;64447;52.140;5.602;2023-04-06T11:09:55;10.60;91.10
35593;DHT22;64447;52.140;5.602;2023-04-06T11:12:23;10.50;91.60
35593;DHT22;64447;52.140;5.602;2023-04-06T11:14:58;10.30;93.20
35593;DHT22;64447;52.140;5.602;2023-04-06T11:17:33;10.40;94.00
35593;DHT22;64447;52.140;5.602;2023-04-06T11:19:59;10.40;94.10
35593;DHT22;64447;52.140;5.602;2023-04-06T11:22:26;10.30;95.40
35593;DHT22;64447;52.140;5.602;2023-04-06T11:24:52;10.40;95.40
35593;DHT22;64447;52.140;5.602;2023-04-06T11:27:19;10.10;96.40
35593;DHT22;64447;52.140;5.602;2023-04-06T11:29:45;10.10;96.60
35593;DHT22;64447;52.140;5.602;2023-04-06T11:32:21;10.20;97.50
35593;DHT22;64447;52.140;5.602;2023-04-06T11:34:48;10.20;97.80
35593;DHT22;64447;52.140;5.602;2023-04-06T11:37:14;10.30;97.90
35593;DHT22;64447;52.140;5.602;2023-04-06T11:39:54;10.10;97.70
35593;DHT22;64447;52.140;5.602;2023-04-06T11:42:25;9.90;98.20
35593;DHT22;64447;52.140;5.602;2023-04-06T11:44:55;9.90;98.60
35593;DHT22;64447;52.140;5.602;2023-04-06T11:47:31;9.80;98.70
35593;DHT22;64447;52.140;5.602;2023-04-06T11:50:12;9.80;98.80
35593;DHT22;64447;52.140;5.602;2023-04-06T11:52:39;10.00;99.20
35593;DHT22;64447;52.140;5.602;2023-04-06T11:55:13;10.00;98.70
35593;DHT22;64447;52.140;5.602;2023-04-06T11:57:41;10.00;98.80
35593;DHT22;64447;52.140;5.602;2023-04-06T12:00:08;10.10;99.10
35593;DHT22;64447;52.140;5.602;2023-04-06T12:02:37;10.10;98.80
35593;DHT22;64447;52.140;5.602;2023-04-06T12:05:03;10.10;98.00
35593;DHT22;64447;52.140;5.602;2023-04-06T12:07:30;10.00;98.90
35593;DHT22;64447;52.140;5.602;2023-04-06T12:09:56;10.00;99.30
35593;DHT22;64447;52.140;5.602;2023-04-06T12:12:22;9.80;99.10
35593;DHT22;64447;52.140;5.602;2023-04-06T12:14:47;9.80;99.20
35593;DHT22;64447;52.140;5.602;2023-04-06T12:17:13;9.60;99.70
35593;DHT22;64447;52.140;5.602;2023-04-06T12:19:39;9.60;99.90
35593;DHT22;64447;52.140;5.602;2023-04-06T12:22:04;9.60;99.90
35593;DHT22;64447;52.140;5.602;2023-04-06T12:24:30;9.60;99.00
35593;DHT22;64447;52.140;5.602;2023-04-06T12:26:56;9.50;99.70
35593;DHT22;64447;52.140;5.602;2023-04-06T12:29:23;9.50;99.50
35593;DHT22;64447;52.140;5.602;2023-04-06T12:31:49;9.50;99.00
35593;DHT22;64447;52.140;5.602;2023-04-06T12:34:14;9.40;99.30
35593;DHT22;64447;52.140;5.602;2023-04-06T12:36:40;9.30;99.30
35593;DHT22;64447;52.140;5.602;2023-04-06T12:39:06;9.40;99.90
35593;DHT22;64447;52.140;5.602;2023-04-06T12:41:31;9.50;99.90
35593;DHT22;64447;52.140;5.602;2023-04-06T12:43:58;9.50;99.90
35593;DHT22;64447;52.140;5.602;2023-04-06T12:46:24;9.50;99.90
35593;DHT22;64447;52.140;5.602;2023-04-06T12:48:53;9.50;99.90
35593;DHT22;64447;52.140;5.602;2023-04-06T12:51:19;9.60;99.90
35593;DHT22;64447;52.140;5.602;2023-04-06T12:57:07;9.50;99.90
35593;DHT22;64447;52.140;5.602;2023-04-06T12:59:34;9.50;99.90
35593;DHT22;64447;52.140;5.602;2023-04-06T13:02:00;9.40;99.90
35593;DHT22;64447;52.140;5.602;2023-04-06T13:04:26;9.40;99.90
35593;DHT22;64447;52.140;5.602;2023-04-06T13:06:52;9.40;99.90
35593;DHT22;64447;52.140;5.602;2023-04-06T13:09:17;9.40;99.90
35593;DHT22;64447;52.140;5.602;2023-04-06T13:11:43;9.40;99.90
35593;DHT22;64447;52.140;5.602;2023-04-06T13:14:09;9.40;99.90
35593;DHT22;64447;52.140;5.602;2023-04-06T13:16:34;9.50;99.90
35593;DHT22;64447;52.140;5.602;2023-04-06T13:19:01;9.50;99.90
35593;DHT22;64447;52.140;5.602;2023-04-06T13:21:27;9.50;99.90
35593;DHT22;64447;52.140;5.602;2023-04-06T13:27:15;9.30;99.90
35593;DHT22;64447;52.140;5.602;2023-04-06T13:29:41;9.20;99.90
35593;DHT22;64447;52.140;5.602;2023-04-06T13:32:06;9.30;99.90
35593;DHT22;64447;52.140;5.602;2023-04-06T13:34:35;9.30;99.90
35593;DHT22;64447;52.140;5.602;2023-04-06T13:37:01;9.40;99.90
35593;DHT22;64447;52.140;5.602;2023-04-06T13:39:26;9.30;99.90
35593;DHT22;64447;52.140;5.602;2023-04-06T13:41:54;9.30;99.90
35593;DHT22;64447;52.140;5.602;2023-04-06T13:44:21;9.30;99.90
35593;DHT22;64447;52.140;5.602;2023-04-06T13:46:47;9.20;99.90
35593;DHT22;64447;52.140;5.602;2023-04-06T13:49:13;9.30;99.90
35593;DHT22;64447;52.140;5.602;2023-04-06T13:51:39;9.30;99.90
35593;DHT22;64447;52.140;5.602;2023-04-06T13:57:26;9.30;99.90
35593;DHT22;64447;52.140;5.602;2023-04-06T13:59:51;9.40;99.90
35593;DHT22;64447;52.140;5.602;2023-04-06T14:02:17;9.30;99.90
35593;DHT22;64447;52.140;5.602;2023-04-06T14:04:44;9.40;99.90
35593;DHT22;64447;52.140;5.602;2023-04-06T14:07:10;9.40;99.90
35593;DHT22;64447;52.140;5.602;2023-04-06T14:09:36;9.40;99.90
35593;DHT22;64447;52.140;5.602;2023-04-06T14:12:01;9.20;99.90
35593;DHT22;64447;52.140;5.602;2023-04-06T14:14:27;9.20;99.90
35593;DHT22;64447;52.140;5.602;2023-04-06T14:16:53;9.20;99.90
35593;DHT22;64447;52.140;5.602;2023-04-06T14:19:19;9.20;99.90
35593;DHT22;64447;52.140;5.602;2023-04-06T14:21:46;9.10;99.90
35593;DHT22;64447;52.140;5.602;2023-04-06T14:27:34;9.10;99.90
35593;DHT22;64447;52.140;5.602;2023-04-06T14:29:59;9.20;99.90
35593;DHT22;64447;52.140;5.602;2023-04-06T14:32:26;9.20;99.90
35593;DHT22;64447;52.140;5.602;2023-04-06T14:34:52;9.20;99.90
35593;DHT22;64447;52.140;5.602;2023-04-06T14:37:17;9.10;99.90
35593;DHT22;64447;52.140;5.602;2023-04-06T14:39:43;9.10;99.90
35593;DHT22;64447;52.140;5.602;2023-04-06T14:42:09;9.10;99.90
35593;DHT22;64447;52.140;5.602;2023-04-06T14:44:35;9.10;99.90
35593;DHT22;64447;52.140;5.602;2023-04-06T14:47:02;9.20;99.90
35593;DHT22;64447;52.140;5.602;2023-04-06T14:49:29;9.40;99.90
35593;DHT22;64447;52.140;5.602;2023-04-06T14:51:55;8.70;99.90
35593;DHT22;64447;52.140;5.602;2023-04-06T14:57:43;9.20;99.90
35593;DHT22;64447;52.140;5.602;2023-04-06T15:00:09;9.10;99.90
35593;DHT22;64447;52.140;5.602;2023-04-06T15:02:35;9.20;99.90
35593;DHT22;64447;52.140;5.602;2023-04-06T15:05:01;9.10;99.90
35593;DHT22;64447;52.140;5.602;2023-04-06T15:07:28;8.90;99.90
35593;DHT22;64447;52.140;5.602;2023-04-06T15:13:16;8.90;99.90
35593;DHT22;64447;52.140;5.602;2023-04-06T15:15:42;8.90;99.90
35593;DHT22;64447;52.140;5.602;2023-04-06T15:18:08;8.70;99.90
35593;DHT22;64447;52.140;5.602;2023-04-06T15:20:34;9.40;99.90
35593;DHT22;64447;52.140;5.602;2023-04-06T15:23:01;8.80;99.90
35593;DHT22;64447;52.140;5.602;2023-04-06T15:25:28;9.30;99.90
35593;DHT22;64447;52.140;5.602;2023-04-06T15:27:54;9.50;99.90
35593;DHT22;64447;52.140;5.602;2023-04-06T15:30:20;9.10;99.90
35593;DHT22;64447;52.140;5.602;2023-04-06T15:32:57;9.00;99.90
35593;DHT22;64447;52.140;5.602;2023-04-06T15:35:24;9.00;99.90
35593;DHT22;64447;52.140;5.602;2023-04-06T15:44:34;9.00;99.90
35593;DHT22;64447;52.140;5.602;2023-04-06T15:47:00;8.80;99.90
35593;DHT22;64447;52.140;5.602;2023-04-06T15:49:25;9.30;99.90
35593;DHT22;64447;52.140;5.602;2023-04-06T15:51:51;8.40;99.90
35593;DHT22;64447;52.140;5.602;2023-04-06T15:54:17;8.70;99.90
35593;DHT22;64447;52.140;5.602;2023-04-06T15:56:44;8.60;99.90
35593;DHT22;64447;52.140;5.602;2023-04-06T15:59:10;8.80;99.90
35593;DHT22;64447;52.140;5.602;2023-04-06T16:01:36;9.30;99.90
35593;DHT22;64447;52.140;5.602;2023-04-06T16:04:06;8.70;99.90
35593;DHT22;64447;52.140;5.602;2023-04-06T16:06:32;8.10;99.90
35593;DHT22;64447;52.140;5.602;2023-04-06T16:08:58;8.50;99.90
35593;DHT22;64447;52.140;5.602;2023-04-06T16:11:23;8.70;99.90
35593;DHT22;64447;52.140;5.602;2023-04-06T16:13:50;8.70;99.90
35593;DHT22;64447;52.140;5.602;2023-04-06T16:16:15;8.70;99.90
35593;DHT22;64447;52.140;5.602;2023-04-06T16:18:41;8.60;99.90
35593;DHT22;64447;52.140;5.602;2023-04-06T16:21:07;8.60;99.90
35593;DHT22;64447;52.140;5.602;2023-04-06T16:23:33;8.80;99.90
35593;DHT22;64447;52.140;5.602;2023-04-06T16:25:59;8.70;99.90
35593;DHT22;64447;52.140;5.602;2023-04-06T16:28:25;8.80;99.90
35593;DHT22;64447;52.140;5.602;2023-04-06T16:30:51;8.80;99.90
35593;DHT22;64447;52.140;5.602;2023-04-06T16:33:17;8.90;99.90
35593;DHT22;64447;52.140;5.602;2023-04-06T16:35:44;8.70;99.90
35593;DHT22;64447;52.140;5.602;2023-04-06T16:38:11;8.60;99.90
35593;DHT22;64447;52.140;5.602;2023-04-06T16:43:58;8.70;99.90
35593;DHT22;64447;52.140;5.602;2023-04-06T16:46:31;8.60;99.90
35593;DHT22;64447;52.140;5.602;2023-04-06T16:49:02;8.60;99.90
35593;DHT22;64447;52.140;5.602;2023-04-06T16:51:28;8.60;99.90
35593;DHT22;64447;52.140;5.602;2023-04-06T16:53:54;8.60;99.90
35593;DHT22;64447;52.140;5.602;2023-04-06T16:56:20;8.60;99.90
35593;DHT22;64447;52.140;5.602;2023-04-06T16:58:46;8.60;99.90
35593;DHT22;64447;52.140;5.602;2023-04-06T17:01:24;8.60;99.90
35593;DHT22;64447;52.140;5.602;2023-04-06T17:03:50;8.70;99.90
35593;DHT22;64447;52.140;5.602;2023-04-06T17:06:16;8.90;99.90
35593;DHT22;64447;52.140;5.602;2023-04-06T17:08:42;8.80;99.90
35593;DHT22;64447;52.140;5.602;2023-04-06T17:11:08;8.70;99.90
35593;DHT22;64447;52.140;5.602;2023-04-06T17:13:34;9.20;99.90
35593;DHT22;64447;52.140;5.602;2023-04-06T17:16:00;8.60;99.90
35593;DHT22;64447;52.140;5.602;2023-04-06T17:18:26;8.60;99.90
35593;DHT22;64447;52.140;5.602;2023-04-06T17:20:55;8.70;99.90
35593;DHT22;64447;52.140;5.602;2023-04-06T17:23:20;8.50;99.90
35593;DHT22;64447;52.140;5.602;2023-04-06T17:29:10;8.50;99.90
35593;DHT22;64447;52.140;5.602;2023-04-06T17:31:36;8.50;99.90
35593;DHT22;64447;52.140;5.602;2023-04-06T17:34:01;8.60;99.90
35593;DHT22;64447;52.140;5.602;2023-04-06T17:36:27;8.60;99.90
35593;DHT22;64447;52.140;5.602;2023-04-06T17:38:53;9.30;99.90
35593;DHT22;64447;52.140;5.602;2023-04-06T17:41:19;8.80;99.90
35593;DHT22;64447;52.140;5.602;2023-04-06T17:43:44;9.30;99.90
35593;DHT22;64447;52.140;5.602;2023-04-06T17:46:10;8.90;99.90